FW3974 Weather Reports


Display with metric or nautical units.
time (UTC)temp
F
wind
direction
speed
MPH
gust
MPH
rain 1hr
in
rain 24hr
in
rain mn
in
humidity
%
barometer
mb
20191017040017 85 0 0.0 0.0 0.00 0.00 0.00 99 1014.5
20191017034517 85 0 0.0 0.0 0.00 0.00 0.00 99 1014.8
20191017033018 85 0 0.0 0.0 0.00 0.00 0.00 99 1015.2
20191017031517 85 314 0.0 1.0 0.00 0.00 0.00 98 1015.3
20191017030017 84 0 0.0 0.0 0.00 0.00 0.00 99 1015.6
20191017024516 83 0 0.0 0.0 0.00 0.00 0.00 99 1015.9
20191017023017 82 0 0.0 0.0 0.00 0.00 0.00 99 1016.0
20191017021517 81 0 0.0 0.0 0.00 0.00 0.00 99 1016.0
20191017020016 80 0 0.0 0.0 0.00 0.00 0.00 99 1016.0
20191017014517 79 0 0.0 0.0 0.00 0.00 0.00 99 1015.8
20191017013017 78 0 0.0 0.0 0.00 0.00 0.00 99 1015.7
20191017011517 77 0 0.0 0.0 0.00 0.00 0.00 99 1015.7
20191017010017 76 0 0.0 0.0 0.00 0.00 0.00 99 1015.6
20191017004516 75 0 0.0 0.0 0.00 0.00 0.00 99 1015.5
20191017003017 74 0 0.0 0.0 0.00 0.00 0.00 99 1015.0
20191017001517 73 0 0.0 0.0 0.00 0.00 0.00 99 1015.0
20191017000016 73 0 0.0 0.0 0.00 0.00 0.00 99 1014.7
20191016234516 73 1 0.0 2.0 0.00 0.00 0.00 99 1014.4
20191016233017 72 0 0.0 0.0 0.00 0.00 0.00 99 1014.3
20191016231517 73 0 0.0 0.0 0.00 0.00 0.00 99 1013.9
20191016230016 73 0 0.0 0.0 0.00 0.00 0.00 99 1013.9
20191016224518 73 0 0.0 0.0 0.00 0.00 0.00 99 1013.8
20191016223017 73 0 0.0 0.0 0.00 0.00 0.00 99 1013.6
20191016221516 73 0 0.0 0.0 0.00 0.00 0.00 99 1013.5
20191016220016 73 0 0.0 0.0 0.00 0.00 0.00 99 1013.6
20191016214516 73 0 0.0 0.0 0.00 0.00 0.00 99 1013.4
20191016213016 73 0 0.0 0.0 0.00 0.00 0.00 99 1013.4
20191016211519 73 0 0.0 0.0 0.00 0.00 0.00 99 1013.2
20191016210016 73 0 0.0 0.0 0.00 0.00 0.00 99 1013.3
20191016204515 74 0 0.0 0.0 0.00 0.00 0.00 99 1013.3
20191016203016 74 0 0.0 0.0 0.00 0.00 0.00 99 1013.3
20191016201516 74 0 0.0 0.0 0.00 0.00 0.00 99 1013.3
20191016200016 74 0 0.0 0.0 0.00 0.00 0.00 99 1013.3
20191016194516 74 0 0.0 0.0 0.00 0.00 0.00 99 1013.3
20191016193016 74 0 0.0 0.0 0.00 0.00 0.00 99 1013.4
20191016191515 74 0 0.0 0.0 0.00 0.00 0.00 99 1013.5
20191016190015 74 0 0.0 0.0 0.00 0.00 0.00 99 1013.6
20191016184516 74 0 0.0 0.0 0.00 0.00 0.00 99 1013.7
20191016183016 74 0 0.0 0.0 0.00 0.00 0.00 99 1014.0
20191016181515 74 0 0.0 0.0 0.00 0.00 0.00 99 1014.1
20191016180015 74 0 0.0 0.0 0.00 0.00 0.00 99 1014.0
20191016174516 74 0 0.0 0.0 0.00 0.00 0.00 99 1014.0
20191016173016 74 0 0.0 0.0 0.00 0.00 0.00 99 1014.2
20191016171515 75 0 0.0 0.0 0.00 0.00 0.00 99 1014.1
20191016170016 75 0 0.0 0.0 0.00 0.00 0.00 99 1014.2
20191016164515 75 0 0.0 0.0 0.00 0.00 0.00 99 1014.0
20191016163015 75 0 0.0 0.0 0.00 0.00 0.00 99 1014.2
20191016161515 75 0 0.0 0.0 0.00 0.00 0.00 99 1014.4
20191016160015 76 0 0.0 0.0 0.00 0.00 0.00 99 1014.4
20191016154516 76 0 0.0 0.0 0.00 0.00 0.00 99 1014.5
20191016153015 76 0 0.0 0.0 0.00 0.00 0.00 99 1014.7
20191016151517 76 0 0.0 0.0 0.00 0.00 0.00 99 1014.3
20191016150015 76 0 0.0 0.0 0.00 0.00 0.00 99 1014.2
20191016144515 77 0 0.0 0.0 0.00 0.00 0.00 99 1014.3
20191016143015 77 0 0.0 0.0 0.00 0.00 0.00 99 1014.3
20191016141515 77 0 0.0 0.0 0.00 0.00 0.00 99 1014.1
20191016140015 77 0 0.0 0.0 0.00 0.00 0.00 99 1014.1
20191016134515 77 0 0.0 0.0 0.00 0.00 0.00 99 1013.8
20191016133016 77 0 0.0 0.0 0.00 0.00 0.00 99 1013.6
20191016131514 78 0 0.0 0.0 0.00 0.00 0.00 99 1013.2
20191016130015 78 0 0.0 0.0 0.00 0.00 0.00 99 1013.0
20191016124515 78 0 0.0 0.0 0.00 0.00 0.00 99 1012.6
20191016123015 78 0 0.0 0.0 0.00 0.00 0.00 99 1012.4
20191016121515 79 0 0.0 0.0 0.00 0.00 0.00 99 1012.3
20191016120014 79 0 0.0 0.0 0.00 0.00 0.00 99 1011.9
20191016114515 80 0 0.0 0.0 0.00 0.00 0.00 99 1011.6
20191016113015 80 0 0.0 0.0 0.00 0.00 0.00 99 1011.4
20191016111514 81 0 0.0 0.0 0.00 0.00 0.00 99 1011.3
20191016110015 82 0 0.0 0.0 0.00 0.00 0.00 97 1011.0
20191016104516 83 0 0.0 0.0 0.00 0.00 0.00 93 1011.0
20191016103014 83 0 0.0 0.0 0.00 0.00 0.00 90 1010.7
20191016101514 84 0 0.0 0.0 0.00 0.00 0.00 86 1010.7
20191016100014 85 0 0.0 0.0 0.00 0.00 0.00 83 1010.6
20191016094515 86 0 0.0 0.0 0.00 0.01 0.00 79 1010.5
20191016093015 87 0 0.0 0.0 0.00 0.01 0.00 74 1010.4
20191016091514 89 0 0.0 0.0 0.00 0.01 0.00 62 1010.3
20191016090015 94 0 0.0 0.0 0.00 0.01 0.00 47 1010.3
20191016084514 96 0 0.0 0.0 0.00 0.01 0.00 43 1010.2
20191016083014 99 0 0.0 0.0 0.00 0.01 0.00 33 1010.1
20191016081514 104 0 0.0 0.0 0.00 0.01 0.00 25 1010.3
20191016080014 102 301 0.0 2.0 0.00 0.01 0.00 32 1010.4
20191016074515 100 0 0.0 0.0 0.00 0.01 0.00 34 1010.7
20191016073014 100 0 0.0 0.0 0.00 0.01 0.00 39 1010.9
20191016071514 100 0 0.0 0.0 0.00 0.01 0.00 36 1011.0
20191016070013 98 0 0.0 0.0 0.00 0.01 0.00 41 1011.3
20191016064513 97 0 0.0 0.0 0.00 0.01 0.00 45 1011.6
20191016063014 96 0 0.0 0.0 0.00 0.01 0.00 46 1011.9
20191016061514 96 0 0.0 0.0 0.00 0.01 0.00 47 1012.3
20191016060013 96 0 0.0 0.0 0.00 0.01 0.00 48 1012.5
20191016054514 92 0 0.0 0.0 0.00 0.01 0.00 60 1012.8
20191016051514 92 1 0.0 1.0 0.00 0.01 0.00 52 1013.4
20191016050014 90 315 0.0 1.0 0.00 0.01 0.00 62 1013.6
20191016044513 90 0 0.0 0.0 0.00 0.01 0.00 72 1014.0
20191016043015 89 0 0.0 0.0 0.00 0.01 0.00 74 1014.3
20191016041514 87 270 0.0 1.0 0.00 0.01 0.00 79 1014.6